Time;durP1;ratioP1;P1;durP2;ratioP2;P2;SDS_P1;SDS_P2;PMS_P1;PMS_P2;Temp;Humidity;BMP_temperature;BMP_pressure;BME280_temperature;BME280_humidity;BME280_pressure;Samples;Min_cycle;Max_cycle;Signal;HPM_P1;HPM_P2
2022/04/21 00:00:24;;;;;;;13.90;10.13;;;;;;;7.44;53.80;98699.41;5126239;28;20296;-69
2022/04/21 00:02:56;;;;;;;14.15;10.13;;;;;;;7.45;53.36;98698.47;5125989;28;20056;-69
2022/04/21 00:05:29;;;;;;;14.38;10.15;;;;;;;7.33;54.69;98701.75;5126097;28;20040;-69
2022/04/21 00:08:02;;;;;;;11.43;10.27;;;;;;;7.33;53.77;98697.31;5125362;28;20044;-69
2022/04/21 00:10:34;;;;;;;13.38;10.82;;;;;;;7.22;53.80;98670.66;5125205;28;20044;-69
2022/04/21 00:13:08;;;;;;;14.80;12.60;;;;;;;7.15;55.06;98666.63;5126126;28;20040;-69
2022/04/21 00:15:40;;;;;;;15.02;11.70;;;;;;;6.33;53.87;98534.78;5126313;28;20040;-69
2022/04/21 00:18:11;;;;;;;15.05;12.02;;;;;;;6.84;53.93;98606.78;5126296;28;20050;-69
2022/04/21 00:20:41;;;;;;;13.00;11.63;;;;;;;6.05;54.37;98482.69;5125996;28;20043;-69
2022/04/21 00:23:29;;;;;;;12.02;10.20;;;;;;;7.25;54.36;98691.56;5126030;28;20069;-69
2022/04/21 00:26:03;;;;;;;14.55;10.48;;;;;;;6.45;54.28;98550.88;5125662;28;20057;-68
2022/04/21 00:28:36;;;;;;;12.68;11.27;;;;;;;6.96;54.26;98648.28;5125251;28;20047;-69
2022/04/21 00:31:09;;;;;;;11.82;9.77;;;;;;;7.26;54.23;98692.41;5125807;28;20050;-69
2022/04/21 00:33:41;;;;;;;11.18;8.70;;;;;;;7.23;54.08;98695.22;5125909;28;20242;-70
2022/04/21 00:36:13;;;;;;;9.82;8.60;;;;;;;6.88;54.44;98646.97;5125859;28;20207;-69
2022/04/21 00:38:45;;;;;;;10.07;8.60;;;;;;;7.16;54.43;98705.22;5125734;28;20085;-69
2022/04/21 00:41:17;;;;;;;10.45;8.65;;;;;;;7.08;54.77;98694.22;5125736;28;20039;-69
2022/04/21 00:43:51;;;;;;;11.52;9.23;;;;;;;6.78;54.95;98643.06;5126066;28;20040;-69
2022/04/21 00:46:23;;;;;;;9.82;8.23;;;;;;;6.64;54.81;98620.94;5126047;28;20047;-69
2022/04/21 00:48:56;;;;;;;10.30;8.80;;;;;;;6.68;55.11;98643.53;5125708;28;20044;-69
2022/04/21 00:51:28;;;;;;;10.25;8.55;;;;;;;6.67;55.02;98641.84;5125852;28;20062;-68
2022/04/21 00:54:01;;;;;;;9.43;8.38;;;;;;;6.95;55.43;98691.38;5125940;28;20039;-68
2022/04/21 00:56:34;;;;;;;9.40;7.90;;;;;;;6.98;54.64;98693.84;5125975;28;20043;-69
2022/04/21 00:59:08;;;;;;;9.05;7.80;;;;;;;6.97;54.82;98692.13;5125593;28;20043;-69
2022/04/21 01:04:32;;;;;;;9.82;7.78;;;;;;;6.85;55.21;98686.63;5125516;28;20039;-69
2022/04/21 01:07:08;;;;;;;9.13;7.55;;;;;;;5.47;54.99;98487.34;5125495;28;20246;-69
2022/04/21 01:09:41;;;;;;;9.32;8.07;;;;;;;6.79;55.14;98690.41;5125776;28;20242;-68
2022/04/21 01:12:15;;;;;;;8.88;6.95;;;;;;;5.97;54.98;98597.97;5124887;28;20226;-69
2022/04/21 01:14:49;;;;;;;11.18;8.35;;;;;;;6.84;55.06;98688.41;5125741;28;20128;-68
2022/04/21 01:17:31;;;;;;;9.32;8.07;;;;;;;6.87;56.49;98690.91;5125679;28;20230;-69
2022/04/21 01:20:05;;;;;;;9.82;7.78;;;;;;;6.85;54.80;98692.75;5125861;28;20039;-69
2022/04/21 01:22:39;;;;;;;8.47;7.63;;;;;;;6.81;55.15;98693.84;5126056;28;20039;-68
2022/04/21 01:25:11;;;;;;;8.63;7.72;;;;;;;6.72;55.13;98692.50;5125988;28;20040;-68
2022/04/21 01:27:45;;;;;;;7.65;6.85;;;;;;;6.67;55.56;98689.25;5125671;28;20043;-69
2022/04/21 01:30:17;;;;;;;8.80;7.10;;;;;;;6.67;55.35;98683.13;5125824;28;20048;-69
2022/04/21 01:32:51;;;;;;;9.10;7.90;;;;;;;6.69;55.43;98682.13;5125364;28;20089;-69
2022/04/21 01:35:23;;;;;;;9.50;8.52;;;;;;;6.67;55.56;98678.72;5125577;28;20048;-69
2022/04/21 01:43:36;;;;;;;9.23;8.25;;;;;;;6.52;55.47;98675.97;5129132;28;20061;-69
2022/04/21 01:46:09;;;;;;;10.00;8.75;;;;;;;6.58;55.34;98676.53;5128147;28;20039;-69
2022/04/21 01:48:42;;;;;;;9.32;8.43;;;;;;;6.62;55.09;98675.44;5129172;27;20048;-68
2022/04/21 01:51:14;;;;;;;11.88;9.23;;;;;;;6.59;56.28;98674.75;5128519;28;20043;-70
2022/04/21 01:53:48;;;;;;;11.15;9.10;;;;;;;6.64;55.59;98673.59;5128604;28;20036;-69
2022/04/21 01:56:20;;;;;;;10.35;8.88;;;;;;;6.65;54.90;98675.28;5128847;28;20084;-70
2022/04/21 01:58:52;;;;;;;10.45;8.55;;;;;;;6.66;54.85;98670.88;5128819;28;20039;-69
2022/04/21 02:01:24;;;;;;;10.95;8.85;;;;;;;6.38;54.87;98622.25;5128471;28;20364;-69
2022/04/21 02:03:56;;;;;;;10.88;9.63;;;;;;;6.64;55.07;98659.56;5128657;28;20040;-70
2022/04/21 02:06:28;;;;;;;11.70;8.85;;;;;;;6.62;55.06;98653.53;5128399;28;20040;-69
2022/04/21 02:09:02;;;;;;;10.75;9.65;;;;;;;6.53;55.58;98668.00;5128362;28;20039;-70
2022/04/21 02:11:35;;;;;;;13.02;11.43;;;;;;;6.54;55.83;98663.59;5128295;27;20345;-69
2022/04/21 02:14:07;;;;;;;11.50;9.27;;;;;;;6.46;55.76;98663.97;5128294;27;20043;-69
2022/04/21 02:16:40;;;;;;;13.15;10.25;;;;;;;6.43;55.69;98661.50;5128464;28;20043;-69
2022/04/21 02:19:12;;;;;;;11.98;9.68;;;;;;;6.42;55.89;98663.28;5128473;27;20085;-70
2022/04/21 02:21:44;;;;;;;10.35;8.82;;;;;;;6.51;55.63;98661.13;5128353;28;20039;-70
2022/04/21 02:24:18;;;;;;;14.02;9.85;;;;;;;6.49;56.49;98658.56;5128122;28;20043;-69
2022/04/21 02:26:50;;;;;;;10.63;7.63;;;;;;;6.34;56.15;98628.59;5128043;28;20288;-69
2022/04/21 02:29:22;;;;;;;12.90;9.43;;;;;;;6.45;56.05;98645.63;5128274;28;20244;-69
2022/04/21 02:31:54;;;;;;;13.18;9.45;;;;;;;6.38;56.61;98635.41;5127878;28;20040;-69
2022/04/21 02:34:28;;;;;;;12.18;9.95;;;;;;;6.46;55.84;98642.91;5128191;28;20036;-70
2022/04/21 02:37:00;;;;;;;9.75;8.70;;;;;;;6.54;55.72;98645.16;5127847;28;20048;-70
2022/04/21 02:39:34;;;;;;;12.27;9.13;;;;;;;6.60;55.58;98650.13;5127767;28;20040;-69
2022/04/21 02:42:07;;;;;;;12.18;9.43;;;;;;;6.35;55.72;98611.00;5128051;28;20043;-69
2022/04/21 02:44:39;;;;;;;12.55;9.65;;;;;;;6.59;55.61;98646.63;5127704;28;20039;-69
2022/04/21 02:47:11;;;;;;;10.77;9.43;;;;;;;6.58;55.68;98644.09;5127887;27;20047;-69
2022/04/21 02:49:46;;;;;;;11.10;9.70;;;;;;;6.48;56.43;98637.56;5126686;28;20040;-69
2022/04/21 02:52:20;;;;;;;10.82;9.63;;;;;;;6.08;56.16;98577.25;5127468;28;20066;-69
2022/04/21 02:57:43;;;;;;;12.43;9.38;;;;;;;6.41;56.03;98643.16;5126760;28;20036;-70
2022/04/21 03:00:16;;;;;;;21.85;10.48;;;;;;;6.23;55.97;98596.69;5127779;28;20040;-69
2022/04/21 03:02:48;;;;;;;12.88;10.25;;;;;;;6.42;55.93;98644.84;5127137;28;20316;-69
2022/04/21 03:05:20;;;;;;;11.27;9.63;;;;;;;6.07;56.26;98596.59;5127613;28;20036;-69
2022/04/21 03:07:54;;;;;;;11.18;9.65;;;;;;;6.01;56.71;98590.78;5127482;27;20044;-68
2022/04/21 03:10:28;;;;;;;11.73;9.50;;;;;;;6.27;56.91;98650.00;5127650;27;20292;-70
2022/04/21 03:13:00;;;;;;;13.40;9.80;;;;;;;6.25;56.71;98642.19;5126680;28;20208;-70
2022/04/21 03:15:32;;;;;;;12.13;9.38;;;;;;;6.24;56.29;98645.75;5127238;28;20288;-69
2022/04/21 03:18:05;;;;;;;12.57;8.95;;;;;;;6.24;56.60;98643.13;5127560;28;20040;-69
2022/04/21 03:26:29;;;;;;;12.07;9.52;;;;;;;6.03;57.15;98638.91;5044874;28;20045;-69
2022/04/21 03:29:02;;;;;;;13.40;10.32;;;;;;;6.06;57.17;98649.28;5113827;28;20082;-69
2022/04/21 03:31:35;;;;;;;11.68;9.68;;;;;;;4.29;57.06;98394.81;5126936;28;20039;-70
2022/04/21 03:34:07;;;;;;;10.10;8.68;;;;;;;5.44;57.34;98561.94;5126274;28;20043;-69
2022/04/21 03:36:39;;;;;;;15.35;10.20;;;;;;;5.98;57.18;98646.16;5126870;28;20051;-69
2022/04/21 03:39:12;;;;;;;11.80;9.65;;;;;;;5.97;57.34;98652.34;5126595;27;20081;-69
2022/04/21 03:41:45;;;;;;;11.57;10.18;;;;;;;5.31;57.66;98552.94;5126602;28;20043;-69
2022/04/21 03:44:18;;;;;;;11.15;9.82;;;;;;;5.93;57.70;98650.78;5126751;28;20177;-69
2022/04/21 03:46:50;;;;;;;12.10;9.68;;;;;;;5.08;57.74;98527.72;5126445;28;20047;-69
2022/04/21 03:49:24;;;;;;;11.27;10.18;;;;;;;5.86;57.87;98652.00;5126396;28;20056;-69
2022/04/21 03:51:57;;;;;;;11.65;10.43;;;;;;;5.02;57.50;98533.25;5126580;28;20050;-69
2022/04/21 03:54:29;;;;;;;12.73;10.38;;;;;;;4.08;57.38;98356.41;5125736;28;20039;-69
2022/04/21 03:57:02;;;;;;;13.07;10.07;;;;;;;5.83;57.72;98658.25;5126579;28;20043;-69
2022/04/21 03:59:36;;;;;;;13.02;10.73;;;;;;;5.75;57.92;98660.38;5126451;28;20085;-69
2022/04/21 04:02:08;;;;;;;12.95;9.32;;;;;;;5.42;58.10;98615.50;5124719;28;20059;-69
2022/04/21 04:04:41;;;;;;;12.88;9.52;;;;;;;5.78;57.91;98668.13;5126167;28;20043;-70
2022/04/21 04:12:54;;;;;;;11.48;10.27;;;;;;;5.78;58.01;98665.50;5126004;28;20085;-69
2022/04/21 04:15:26;;;;;;;14.25;10.38;;;;;;;5.73;58.31;98667.50;5125329;28;20040;-70
2022/04/21 04:17:58;;;;;;;11.73;9.85;;;;;;;5.69;58.51;98671.19;5108458;28;20051;-69
2022/04/21 04:20:31;;;;;;;12.63;10.55;;;;;;;5.74;57.81;98659.53;5126162;28;20043;-69
2022/04/21 04:23:03;;;;;;;12.93;9.52;;;;;;;5.81;57.95;98669.78;5109082;28;20295;-70
2022/04/21 04:25:35;;;;;;;12.13;10.73;;;;;;;5.77;57.91;98667.28;5125905;28;20140;-69
2022/04/21 04:28:09;;;;;;;11.60;9.88;;;;;;;5.73;57.94;98678.88;5125814;28;20043;-69
2022/04/21 04:30:43;;;;;;;11.63;10.25;;;;;;;5.13;58.43;98593.16;5125866;28;20039;-69
2022/04/21 04:33:16;;;;;;;13.38;10.38;;;;;;;5.63;57.79;98679.38;5125866;28;20044;-69
2022/04/21 04:35:48;;;;;;;13.05;10.50;;;;;;;5.58;58.65;98678.72;5125924;28;20057;-69
2022/04/21 04:38:20;;;;;;;13.80;10.75;;;;;;;5.62;58.32;98678.50;5125798;28;20035;-69
2022/04/21 04:40:52;;;;;;;14.70;12.40;;;;;;;5.56;57.90;98675.31;5125949;28;20088;-69
2022/04/21 04:43:25;;;;;;;13.15;10.75;;;;;;;5.25;58.04;98628.53;5125479;28;20308;-69
2022/04/21 04:48:47;;;;;;;12.52;10.90;;;;;;;5.57;58.03;98661.25;5125772;28;20044;-69
2022/04/21 04:51:19;;;;;;;12.52;11.20;;;;;;;4.50;57.94;98479.59;5125993;28;20052;-69
2022/04/21 04:53:53;;;;;;;13.65;11.27;;;;;;;5.42;57.69;98620.75;5125632;28;20089;-69
2022/04/21 04:56:27;;;;;;;12.50;10.27;;;;;;;5.44;57.28;98619.75;5124921;28;20295;-69
2022/04/21 04:59:01;;;;;;;14.80;11.50;;;;;;;4.86;57.80;98542.72;5125585;28;20333;-69
2022/04/21 05:01:35;;;;;;;14.80;11.32;;;;;;;5.69;57.73;98658.06;5125350;28;20231;-69
2022/04/21 05:04:08;;;;;;;13.80;11.38;;;;;;;5.72;57.92;98671.91;5125484;28;20062;-69
2022/04/21 05:06:43;;;;;;;15.35;12.23;;;;;;;5.73;58.33;98689.38;5125576;28;20040;-69
2022/04/21 05:09:16;;;;;;;13.90;11.95;;;;;;;5.78;57.89;98690.03;5125536;28;20052;-70
2022/04/21 05:11:52;;;;;;;14.68;11.75;;;;;;;5.69;58.46;98685.19;5125814;28;20089;-70
2022/04/21 05:14:26;;;;;;;13.07;10.68;;;;;;;5.65;58.33;98690.66;5128977;28;20300;-69
2022/04/21 05:16:58;;;;;;;13.32;11.52;;;;;;;5.61;58.74;98691.72;5128585;28;20249;-69
2022/04/21 05:19:31;;;;;;;14.23;11.75;;;;;;;5.74;58.44;98690.25;5129238;28;20043;-69
2022/04/21 05:22:05;;;;;;;13.02;10.73;;;;;;;5.74;58.90;98683.19;5128696;28;20092;-69
2022/04/21 05:24:39;;;;;;;16.23;10.73;;;;;;;5.76;58.50;98706.78;5128735;28;20085;-69
2022/04/21 05:27:13;;;;;;;20.23;12.10;;;;;;;5.77;58.71;98690.09;5128547;28;20177;-69
2022/04/21 05:32:41;;;;;;;14.73;11.68;;;;;;;5.89;57.74;98675.53;5128786;27;20062;-69
2022/04/21 05:35:16;;;;;;;13.70;11.73;;;;;;;5.95;57.90;98676.09;5129240;28;20140;-69
2022/04/21 05:37:48;;;;;;;17.92;12.52;;;;;;;6.02;57.37;98674.88;5128849;28;20226;-69
2022/04/21 05:40:22;;;;;;;20.70;17.30;;;;;;;6.09;57.57;98678.06;5128828;28;20039;-69
2022/04/21 05:42:55;;;;;;;25.83;19.58;;;;;;;6.22;57.51;98673.91;5128073;28;20044;-70
2022/04/21 05:45:30;;;;;;;24.27;19.83;;;;;;;6.33;58.09;98676.88;5128986;28;20081;-69
2022/04/21 05:48:03;;;;;;;25.90;19.63;;;;;;;6.46;56.90;98676.28;5128860;28;20230;-69
2022/04/21 05:50:36;;;;;;;24.67;19.27;;;;;;;6.52;56.65;98671.56;5128157;28;20093;-69
2022/04/21 05:53:12;;;;;;;20.17;14.35;;;;;;;4.66;56.37;98366.91;5128027;28;20043;-69
2022/04/21 05:55:44;;;;;;;18.92;15.00;;;;;;;6.61;56.81;98686.06;5128455;28;20089;-69
2022/04/21 05:58:16;;;;;;;21.25;16.70;;;;;;;6.68;55.91;98680.41;5128554;28;20043;-69
2022/04/21 06:00:50;;;;;;;21.23;15.27;;;;;;;6.74;56.61;98672.19;5128581;28;20048;-69
2022/04/21 06:03:22;;;;;;;17.48;13.75;;;;;;;6.86;55.80;98672.53;5127582;28;20067;-69
2022/04/21 06:05:55;;;;;;;17.70;13.40;;;;;;;6.95;55.78;98672.06;5128368;27;20061;-69
2022/04/21 06:08:27;;;;;;;16.35;13.98;;;;;;;7.03;55.41;98675.16;5128277;28;20040;-69
2022/04/21 06:10:59;;;;;;;17.50;14.18;;;;;;;6.01;55.57;98504.81;5128515;28;20043;-70
2022/04/21 06:13:31;;;;;;;21.35;15.52;;;;;;;6.98;55.18;98635.88;5128123;28;20040;-69
2022/04/21 06:16:06;;;;;;;16.75;14.02;;;;;;;8.20;53.43;98679.41;5128249;28;20300;-69
2022/04/21 06:18:35;;;;;;;21.17;15.55;;;;;;;12.89;43.65;98644.91;5127578;28;20051;-69
2022/04/21 06:21:06;;;;;;;26.65;18.13;;;;;;;16.04;37.36;98636.72;5127218;28;20036;-68
2022/04/21 06:23:35;;;;;;;22.33;17.38;;;;;;;17.77;34.23;98616.28;5128092;28;20055;-69
2022/04/21 06:26:05;;;;;;;21.83;17.00;;;;;;;18.89;32.46;98607.78;5127366;28;20039;-68
2022/04/21 06:28:35;;;;;;;21.02;15.60;;;;;;;19.59;31.59;98604.25;5127963;28;20035;-69
2022/04/21 06:31:06;;;;;;;18.70;15.32;;;;;;;20.08;30.43;98567.69;5127060;28;20039;-69
2022/04/21 06:33:35;;;;;;;18.33;15.05;;;;;;;20.85;29.87;98606.88;5127777;27;20040;-69
2022/04/21 06:36:07;;;;;;;16.42;13.45;;;;;;;21.06;29.71;98601.84;5126946;28;20050;-69
2022/04/21 06:38:36;;;;;;;16.77;14.98;;;;;;;21.21;29.38;98610.09;5127791;28;20036;-69
2022/04/21 06:41:06;;;;;;;18.13;14.00;;;;;;;21.38;29.70;98606.34;5127347;28;20113;-69
2022/04/21 06:49:17;;;;;;;15.45;13.85;;;;;;;18.15;34.02;98616.06;5127690;28;20044;-69
2022/04/21 06:51:49;;;;;;;17.95;14.18;;;;;;;16.62;36.81;98635.00;5127864;28;20039;-69
2022/04/21 06:54:22;;;;;;;20.65;15.05;;;;;;;15.29;39.93;98642.41;5127659;27;20092;-69
2022/04/21 06:56:54;;;;;;;21.52;16.13;;;;;;;14.65;40.70;98651.34;5127481;28;20043;-69
2022/04/21 06:59:26;;;;;;;17.52;15.30;;;;;;;14.69;41.56;98644.78;5126393;28;20057;-69
2022/04/21 07:02:00;;;;;;;16.30;14.35;;;;;;;14.43;40.50;98614.91;5127031;27;20104;-69
2022/04/21 07:04:32;;;;;;;18.75;14.57;;;;;;;14.31;42.83;98647.88;5126424;28;20050;-69
2022/04/21 07:07:05;;;;;;;16.58;14.23;;;;;;;13.78;43.36;98605.13;5127266;27;20039;-69
2022/04/21 07:09:37;;;;;;;19.30;16.08;;;;;;;14.01;43.34;98645.03;5126921;28;20039;-69
2022/04/21 07:12:10;;;;;;;15.05;13.45;;;;;;;13.72;44.05;98645.56;5127094;28;20040;-69
2022/04/21 07:14:43;;;;;;;15.80;14.15;;;;;;;13.36;44.17;98621.78;5127259;28;20336;-69
2022/04/21 07:17:16;;;;;;;14.88;13.32;;;;;;;13.38;43.99;98652.66;5127294;28;20039;-69
2022/04/21 07:19:49;;;;;;;15.43;13.77;;;;;;;13.31;43.98;98651.44;5127188;28;20047;-69
2022/04/21 07:22:21;;;;;;;17.92;14.55;;;;;;;12.06;44.78;98482.00;5126853;28;20234;-69
2022/04/21 07:24:54;;;;;;;14.68;13.10;;;;;;;13.19;44.76;98654.19;5127024;28;20085;-69
2022/04/21 07:27:26;;;;;;;15.35;13.75;;;;;;;13.20;43.90;98661.19;5127126;28;20296;-69
2022/04/21 07:29:58;;;;;;;15.88;14.27;;;;;;;13.10;44.33;98647.75;5126980;28;20039;-69
2022/04/21 07:32:32;;;;;;;14.80;13.30;;;;;;;13.03;44.65;98649.19;5126669;28;20214;-69
2022/04/21 07:35:05;;;;;;;15.02;13.52;;;;;;;13.16;44.32;98644.63;5126624;28;20237;-69
2022/04/21 07:37:38;;;;;;;14.90;13.25;;;;;;;13.22;44.08;98640.66;5126564;28;20061;-69
2022/04/21 07:40:10;;;;;;;20.08;15.50;;;;;;;13.12;44.19;98596.13;5126502;28;20069;-69
2022/04/21 07:42:45;;;;;;;17.35;15.55;;;;;;;13.48;43.57;98637.69;5126379;28;20040;-68
2022/04/21 07:45:17;;;;;;;15.73;14.23;;;;;;;13.56;43.59;98638.91;5126439;28;20051;-69
2022/04/21 07:47:50;;;;;;;17.27;15.48;;;;;;;13.53;42.65;98639.97;5126083;28;20252;-69
2022/04/21 07:50:24;;;;;;;17.55;15.65;;;;;;;13.37;42.95;98640.31;5126682;28;20040;-69
2022/04/21 07:53:13;;;;;;;18.95;16.80;;;;;;;13.19;44.07;98643.53;5126297;28;20065;-69
2022/04/21 07:55:47;;;;;;;17.33;14.90;;;;;;;13.36;43.83;98643.09;5126547;28;20305;-69
2022/04/21 07:58:21;;;;;;;18.67;16.30;;;;;;;12.33;43.06;98492.38;5125530;28;20076;-69
2022/04/21 08:00:54;;;;;;;17.88;16.08;;;;;;;13.21;44.19;98638.94;5125505;28;20238;-69
2022/04/21 08:03:35;;;;;;;21.70;16.10;;;;;;;13.42;43.41;98632.84;5125719;28;20039;-69
2022/04/21 08:06:08;;;;;;;16.77;15.00;;;;;;;13.53;43.53;98620.50;5125610;28;20039;-69
2022/04/21 08:08:40;;;;;;;18.35;14.82;;;;;;;13.50;43.53;98584.31;5125590;28;20035;-68
2022/04/21 08:11:10;;;;;;;15.82;14.30;;;;;;;13.84;42.88;98624.25;5126546;28;20040;-69
2022/04/21 08:13:40;;;;;;;18.50;14.32;;;;;;;13.82;42.98;98635.00;5126279;28;20331;-69
2022/04/21 08:16:11;;;;;;;17.88;15.98;;;;;;;13.73;43.08;98630.41;5126057;28;20039;-69
2022/04/21 08:18:43;;;;;;;17.98;14.95;;;;;;;13.68;42.88;98585.53;5126392;28;20060;-69
2022/04/21 08:21:12;;;;;;;17.70;15.90;;;;;;;13.77;42.15;98626.53;5126198;28;20039;-69
2022/04/21 08:23:42;;;;;;;17.90;16.00;;;;;;;13.45;42.43;98584.69;5126054;28;20043;-69
2022/04/21 08:34:42;;;;;;;15.52;13.95;;;;;;;14.24;42.15;98625.38;5126180;28;20144;-69
2022/04/21 08:37:15;;;;;;;16.50;14.80;;;;;;;14.40;41.64;98625.81;5125849;28;20040;-69
2022/04/21 08:39:47;;;;;;;17.63;15.38;;;;;;;14.51;40.48;98632.06;5125909;28;20085;-69
2022/04/21 08:42:20;;;;;;;21.10;17.55;;;;;;;14.31;41.20;98634.56;5125050;28;20088;-70
2022/04/21 08:44:59;;;;;;;16.30;14.57;;;;;;;13.89;41.48;98558.13;5124997;28;20292;-69
2022/04/21 08:47:39;;;;;;;15.35;13.73;;;;;;;14.65;41.22;98626.50;5125492;28;20062;-69
2022/04/21 08:50:14;;;;;;;17.92;15.55;;;;;;;14.85;40.18;98628.34;5129961;28;20042;-69
2022/04/21 08:52:47;;;;;;;18.15;16.20;;;;;;;14.83;40.33;98622.31;5129584;28;20039;-69
2022/04/21 08:55:20;;;;;;;16.63;14.93;;;;;;;13.94;40.25;98490.19;5129395;28;20055;-69
2022/04/21 08:57:53;;;;;;;16.17;14.52;;;;;;;14.82;40.69;98615.28;5128791;28;20131;-69
2022/04/21 09:00:25;;;;;;;19.20;15.35;;;;;;;14.96;40.40;98627.44;5128699;28;20047;-69
2022/04/21 09:02:58;;;;;;;21.30;17.25;;;;;;;14.69;40.36;98575.44;5129337;28;20056;-68
2022/04/21 09:05:32;;;;;;;20.98;17.40;;;;;;;15.01;39.79;98615.41;5129765;28;20092;-69
2022/04/21 09:08:06;;;;;;;17.48;15.75;;;;;;;14.73;40.02;98611.56;5129765;28;20226;-69
2022/04/21 09:10:38;;;;;;;18.70;15.68;;;;;;;14.80;40.67;98619.91;5129408;28;20342;-69
2022/04/21 09:13:10;;;;;;;19.13;15.88;;;;;;;14.66;38.75;98577.53;5129259;28;20100;-69
2022/04/21 09:15:45;;;;;;;18.85;15.70;;;;;;;14.83;39.66;98608.13;5129103;28;20051;-69
2022/04/21 09:18:18;;;;;;;16.98;15.00;;;;;;;14.96;39.80;98617.63;5129203;28;20222;-69
2022/04/21 09:20:54;;;;;;;17.02;12.13;;;;;;;14.28;38.68;98472.25;5129561;28;20048;-69
2022/04/21 09:23:33;;;;;;;15.95;13.65;;;;;;;15.18;38.22;98629.16;5128426;28;20044;-69
2022/04/21 09:26:11;;;;;;;15.68;13.48;;;;;;;15.44;38.13;98601.03;5128635;28;20044;-69
2022/04/21 09:28:43;;;;;;;16.95;15.18;;;;;;;15.40;38.87;98604.97;5129224;28;20043;-69
2022/04/21 09:31:17;;;;;;;14.80;13.30;;;;;;;15.53;39.05;98608.25;5129367;28;20065;-69
2022/04/21 09:33:45;;;;;;;15.90;14.25;;;;;;;15.83;37.91;98599.41;5128009;28;20051;-69
2022/04/21 09:36:18;;;;;;;18.17;15.65;;;;;;;16.00;38.65;98600.56;5129020;28;20085;-70
2022/04/21 09:38:57;;;;;;;16.00;14.38;;;;;;;14.88;36.87;98409.34;5128285;28;20040;-68
2022/04/21 09:41:33;;;;;;;16.52;13.88;;;;;;;15.63;38.02;98563.72;5128514;28;20253;-69
2022/04/21 09:46:07;;;;;;;14.68;13.18;;;;;;;15.71;37.84;98593.31;5128547;28;20044;-69
2022/04/21 09:47:01;;;;;;;13.75;12.35;;;;;;;15.51;38.95;98588.00;5128865;28;20039;-69
2022/04/21 09:49:34;;;;;;;15.23;12.98;;;;;;;15.64;38.97;98593.97;5128591;28;20299;-70
2022/04/21 09:52:10;;;;;;;13.95;12.57;;;;;;;14.89;38.31;98412.84;5128975;28;20051;-70
2022/04/21 09:54:45;;;;;;;15.13;12.82;;;;;;;16.14;37.95;98588.66;5128778;28;20043;-70
2022/04/21 09:57:29;;;;;;;15.82;13.90;;;;;;;15.78;36.28;98563.38;5129006;28;20044;-70
2022/04/21 10:00:03;;;;;;;15.65;14.07;;;;;;;15.77;38.36;98591.94;5127706;28;20206;-71
2022/04/21 10:02:37;;;;;;;14.68;13.07;;;;;;;15.91;38.09;98588.88;5127721;28;20052;-69
2022/04/21 10:05:10;;;;;;;13.70;12.30;;;;;;;16.08;38.30;98582.03;5128509;28;20089;-69
2022/04/21 10:07:45;;;;;;;14.43;12.90;;;;;;;16.28;36.90;98570.38;5127779;28;20039;-70
2022/04/21 10:10:18;;;;;;;13.75;12.43;;;;;;;16.25;37.96;98578.66;5127584;28;20043;-70
2022/04/21 10:12:51;;;;;;;13.43;12.07;;;;;;;16.25;37.26;98577.81;5128794;28;20040;-70
2022/04/21 10:15:25;;;;;;;16.55;12.50;;;;;;;15.90;37.63;98544.44;5127358;28;20062;-70
2022/04/21 10:17:58;;;;;;;15.13;12.20;;;;;;;16.12;37.05;98566.56;5127938;28;20043;-70
2022/04/21 10:20:32;;;;;;;13.48;11.80;;;;;;;16.00;38.02;98565.84;5128526;27;20039;-69
2022/04/21 10:23:11;;;;;;;16.92;11.15;;;;;;;15.23;37.29;98394.72;5128226;28;20061;-69
2022/04/21 10:25:45;;;;;;;13.30;11.32;;;;;;;15.88;37.89;98516.16;5127421;28;20092;-70
2022/04/21 10:28:37;;;;;;;13.07;10.80;;;;;;;16.11;36.73;98552.34;5128316;28;20046;-70
2022/04/21 10:31:34;;;;;;;15.13;11.43;;;;;;;16.23;36.34;98539.69;5128024;28;20341;-70
2022/04/21 10:34:07;;;;;;;16.02;11.65;;;;;;;16.25;37.15;98533.22;5127042;28;20081;-69
2022/04/21 10:36:47;;;;;;;14.77;10.30;;;;;;;16.48;36.54;98538.28;5127874;28;20085;-70
2022/04/21 10:39:27;;;;;;;13.85;10.85;;;;;;;16.06;35.84;98453.03;5127898;28;20036;-69
2022/04/21 10:42:18;;;;;;;15.63;13.07;;;;;;;16.18;35.36;98446.53;5127617;28;20039;-70
2022/04/21 10:44:52;;;;;;;13.15;10.40;;;;;;;16.77;36.54;98525.75;5127489;28;20085;-69
2022/04/21 10:47:36;;;;;;;15.85;11.88;;;;;;;16.35;35.68;98448.50;5127520;28;20043;-69
2022/04/21 10:50:17;;;;;;;12.17;10.87;;;;;;;16.73;34.26;98519.00;5127527;28;20039;-70
2022/04/21 10:58:52;;;;;;;15.90;11.38;;;;;;;16.76;34.00;98516.03;5126514;28;20047;-70
2022/04/21 11:01:31;;;;;;;12.38;11.18;;;;;;;16.72;35.12;98498.59;5127206;28;20063;-70
2022/04/21 11:04:28;;;;;;;11.38;10.30;;;;;;;16.05;34.91;98365.81;5127399;27;20052;-70
2022/04/21 11:07:09;;;;;;;13.52;11.80;;;;;;;16.84;35.34;98501.94;5127449;28;20062;-70
2022/04/21 11:09:45;;;;;;;14.60;11.68;;;;;;;16.64;35.92;98459.16;5126765;28;20229;-69
2022/04/21 11:12:42;;;;;;;18.92;13.52;;;;;;;16.64;34.70;98493.06;5126212;28;20043;-70
2022/04/21 11:15:36;;;;;;;19.45;12.05;;;;;;;16.58;34.80;98456.19;5126711;28;20084;-70
2022/04/21 11:18:11;;;;;;;12.55;11.25;;;;;;;16.87;35.62;98494.47;5126047;28;20274;-70
2022/04/21 11:20:46;;;;;;;13.75;12.25;;;;;;;16.89;36.02;98494.31;5127054;28;20035;-70
2022/04/21 11:23:24;;;;;;;12.40;10.93;;;;;;;16.93;35.27;98496.56;5126059;28;20044;-70
2022/04/21 11:26:04;;;;;;;13.82;10.70;;;;;;;16.55;34.51;98451.97;5127005;28;20051;-70
2022/04/21 11:28:42;;;;;;;10.50;8.63;;;;;;;16.67;34.18;98460.72;5126160;28;20043;-70
2022/04/21 11:31:16;;;;;;;8.90;8.00;;;;;;;16.90;34.99;98496.00;5126388;28;20048;-70
2022/04/21 11:33:48;;;;;;;10.30;7.88;;;;;;;16.74;34.64;98495.75;5126790;28;20036;-68
2022/04/21 11:36:33;;;;;;;8.75;7.65;;;;;;;16.71;34.60;98491.53;5125933;28;20096;-66
2022/04/21 11:39:08;;;;;;;8.25;7.35;;;;;;;16.39;33.62;98510.56;5126581;28;20047;-66
2022/04/21 11:41:42;;;;;;;9.50;6.15;;;;;;;16.57;35.00;98492.81;5126731;28;20146;-67
2022/04/21 11:44:21;;;;;;;7.30;6.57;;;;;;;16.07;34.20;98395.06;5125849;28;20241;-67
2022/04/21 11:46:55;;;;;;;18.50;7.43;;;;;;;16.70;33.29;98489.84;5126273;28;20386;-67
2022/04/21 11:49:27;;;;;;;6.65;5.93;;;;;;;16.88;34.77;98482.78;5126627;28;20292;-67
2022/04/21 11:52:00;;;;;;;7.40;5.93;;;;;;;16.96;33.69;98480.22;5126683;28;20039;-67
2022/04/21 11:54:32;;;;;;;6.43;5.53;;;;;;;16.71;33.56;98443.38;5126234;27;20296;-67
2022/04/21 11:57:04;;;;;;;6.57;5.38;;;;;;;16.76;34.18;98478.56;5126196;28;20234;-67
2022/04/21 11:59:38;;;;;;;6.22;5.63;;;;;;;16.70;34.51;98468.47;5126113;28;20043;-67
2022/04/21 12:07:56;;;;;;;9.95;7.20;;;;;;;15.02;34.65;98264.88;5125655;28;20325;-66
2022/04/21 12:10:29;;;;;;;7.55;6.65;;;;;;;16.63;34.32;98465.47;5126228;28;20047;-66
2022/04/21 12:13:02;;;;;;;8.95;6.13;;;;;;;16.69;34.73;98456.06;5125953;28;20062;-66
2022/04/21 12:15:38;;;;;;;7.00;6.22;;;;;;;16.81;34.15;98475.47;5125816;28;20177;-67
2022/04/21 12:18:11;;;;;;;7.30;5.97;;;;;;;16.27;34.29;98354.78;5125816;28;20259;-67
2022/04/21 12:20:53;;;;;;;6.05;5.13;;;;;;;16.99;33.40;98447.78;5125800;28;20040;-67
2022/04/21 12:23:27;;;;;;;5.90;5.25;;;;;;;17.04;33.94;98450.03;5124157;28;20234;-67
2022/04/21 12:26:00;;;;;;;8.88;7.07;;;;;;;16.80;34.13;98453.22;5125722;28;20207;-67
2022/04/21 12:28:46;;;;;;;7.97;6.10;;;;;;;16.54;34.02;98406.66;5124928;28;20239;-67
2022/04/21 12:31:20;;;;;;;9.23;6.05;;;;;;;16.75;34.32;98455.47;5125595;28;20047;-67
2022/04/21 12:33:53;;;;;;;14.07;8.35;;;;;;;16.76;34.56;98450.97;5125746;28;20043;-70
2022/04/21 12:36:27;;;;;;;7.63;5.53;;;;;;;16.60;34.18;98457.75;5124899;28;20242;-70
2022/04/21 12:38:58;;;;;;;13.38;10.40;;;;;;;16.58;34.77;98442.81;5125757;28;20096;-70
2022/04/21 12:41:29;;;;;;;7.97;6.55;;;;;;;16.39;35.10;98384.88;5125416;28;20039;-70
2022/04/21 12:43:59;;;;;;;8.38;6.88;;;;;;;16.90;34.42;98442.47;5125321;28;20047;-71
2022/04/21 12:46:29;;;;;;;8.05;5.75;;;;;;;16.93;34.15;98429.66;5124541;28;20051;-70
2022/04/21 12:49:00;;;;;;;6.75;5.50;;;;;;;16.92;33.64;98427.13;5125368;28;20111;-70